sensor_id;sensor_type;location;lat;lon;timestamp;temperature;humidity
10143;DHT22;5112;54.088;13.446;2023-04-25T00:02:14;8.40;99.90
10143;DHT22;5112;54.088;13.446;2023-04-25T00:12:17;8.40;99.90
10143;DHT22;5112;54.088;13.446;2023-04-25T00:22:18;8.50;99.90
10143;DHT22;5112;54.088;13.446;2023-04-25T00:32:21;8.70;99.90
10143;DHT22;5112;54.088;13.446;2023-04-25T00:42:24;8.80;99.90
10143;DHT22;5112;54.088;13.446;2023-04-25T00:52:27;8.90;99.90
10143;DHT22;5112;54.088;13.446;2023-04-25T01:02:29;9.00;99.90
10143;DHT22;5112;54.088;13.446;2023-04-25T01:12:33;9.00;99.90
10143;DHT22;5112;54.088;13.446;2023-04-25T01:22:36;9.10;99.90
10143;DHT22;5112;54.088;13.446;2023-04-25T01:32:38;9.00;99.90
10143;DHT22;5112;54.088;13.446;2023-04-25T01:42:43;9.00;99.90
10143;DHT22;5112;54.088;13.446;2023-04-25T01:52:45;9.00;99.90
10143;DHT22;5112;54.088;13.446;2023-04-25T02:02:48;9.10;99.90
10143;DHT22;5112;54.088;13.446;2023-04-25T02:12:51;9.00;99.90
10143;DHT22;5112;54.088;13.446;2023-04-25T02:22:54;8.80;99.90
10143;DHT22;5112;54.088;13.446;2023-04-25T02:32:55;8.70;99.90
10143;DHT22;5112;54.088;13.446;2023-04-25T02:42:58;8.60;99.90
10143;DHT22;5112;54.088;13.446;2023-04-25T02:53:00;8.40;99.90
10143;DHT22;5112;54.088;13.446;2023-04-25T03:03:03;8.40;99.90
10143;DHT22;5112;54.088;13.446;2023-04-25T03:13:05;8.40;99.90
10143;DHT22;5112;54.088;13.446;2023-04-25T03:23:08;8.40;99.90
10143;DHT22;5112;54.088;13.446;2023-04-25T03:33:09;8.40;99.90
10143;DHT22;5112;54.088;13.446;2023-04-25T03:43:13;8.40;99.90
10143;DHT22;5112;54.088;13.446;2023-04-25T03:53:15;8.30;99.90
10143;DHT22;5112;54.088;13.446;2023-04-25T04:03:18;8.40;99.90
10143;DHT22;5112;54.088;13.446;2023-04-25T04:13:20;8.40;99.90
10143;DHT22;5112;54.088;13.446;2023-04-25T04:23:23;8.40;99.90
10143;DHT22;5112;54.088;13.446;2023-04-25T04:33:27;8.50;99.90
10143;DHT22;5112;54.088;13.446;2023-04-25T04:43:31;8.70;99.90
10143;DHT22;5112;54.088;13.446;2023-04-25T04:53:33;8.70;99.90
10143;DHT22;5112;54.088;13.446;2023-04-25T05:03:36;8.70;99.90
10143;DHT22;5112;54.088;13.446;2023-04-25T05:13:38;8.70;99.90
10143;DHT22;5112;54.088;13.446;2023-04-25T05:23:41;8.60;99.90
10143;DHT22;5112;54.088;13.446;2023-04-25T05:33:42;8.60;99.90
10143;DHT22;5112;54.088;13.446;2023-04-25T05:43:45;8.70;99.90
10143;DHT22;5112;54.088;13.446;2023-04-25T05:53:49;8.90;99.90
10143;DHT22;5112;54.088;13.446;2023-04-25T06:03:52;8.80;99.90
10143;DHT22;5112;54.088;13.446;2023-04-25T06:13:54;8.60;99.90
10143;DHT22;5112;54.088;13.446;2023-04-25T06:23:57;8.60;99.90
10143;DHT22;5112;54.088;13.446;2023-04-25T06:33:59;8.70;99.90
10143;DHT22;5112;54.088;13.446;2023-04-25T06:44:02;9.00;99.90
10143;DHT22;5112;54.088;13.446;2023-04-25T06:54:04;9.10;99.90
10143;DHT22;5112;54.088;13.446;2023-04-25T07:04:07;9.10;99.90
10143;DHT22;5112;54.088;13.446;2023-04-25T07:14:08;9.10;99.90
10143;DHT22;5112;54.088;13.446;2023-04-25T07:24:11;9.00;99.90
10143;DHT22;5112;54.088;13.446;2023-04-25T07:34:13;9.20;99.90
10143;DHT22;5112;54.088;13.446;2023-04-25T07:44:16;9.10;99.90
10143;DHT22;5112;54.088;13.446;2023-04-25T07:54:18;8.70;99.90
10143;DHT22;5112;54.088;13.446;2023-04-25T08:04:21;9.10;99.90
10143;DHT22;5112;54.088;13.446;2023-04-25T08:14:23;9.00;99.90
10143;DHT22;5112;54.088;13.446;2023-04-25T08:24:26;9.30;99.90
10143;DHT22;5112;54.088;13.446;2023-04-25T08:34:27;9.00;99.90
10143;DHT22;5112;54.088;13.446;2023-04-25T08:44:30;9.00;99.90
10143;DHT22;5112;54.088;13.446;2023-04-25T08:54:34;9.10;99.90
10143;DHT22;5112;54.088;13.446;2023-04-25T09:04:37;9.40;99.90
10143;DHT22;5112;54.088;13.446;2023-04-25T09:14:39;8.90;99.90
10143;DHT22;5112;54.088;13.446;2023-04-25T09:24:44;8.80;99.90
10143;DHT22;5112;54.088;13.446;2023-04-25T09:34:48;8.50;99.90
10143;DHT22;5112;54.088;13.446;2023-04-25T09:44:53;8.90;99.90
10143;DHT22;5112;54.088;13.446;2023-04-25T09:54:55;9.60;99.90
10143;DHT22;5112;54.088;13.446;2023-04-25T10:04:59;9.30;99.90
10143;DHT22;5112;54.088;13.446;2023-04-25T10:15:03;9.50;99.90
10143;DHT22;5112;54.088;13.446;2023-04-25T10:25:07;9.00;99.90
10143;DHT22;5112;54.088;13.446;2023-04-25T10:35:11;9.00;99.90
10143;DHT22;5112;54.088;13.446;2023-04-25T10:45:15;9.70;99.90
10143;DHT22;5112;54.088;13.446;2023-04-25T10:55:17;9.40;99.90
10143;DHT22;5112;54.088;13.446;2023-04-25T11:05:23;10.10;99.90
10143;DHT22;5112;54.088;13.446;2023-04-25T11:15:29;9.60;99.90
10143;DHT22;5112;54.088;13.446;2023-04-25T11:25:32;9.50;99.90
10143;DHT22;5112;54.088;13.446;2023-04-25T11:35:34;9.40;99.90
10143;DHT22;5112;54.088;13.446;2023-04-25T11:45:38;9.20;99.90
10143;DHT22;5112;54.088;13.446;2023-04-25T11:55:39;9.40;99.90
10143;DHT22;5112;54.088;13.446;2023-04-25T12:05:44;9.40;99.90
10143;DHT22;5112;54.088;13.446;2023-04-25T12:15:46;9.30;99.90
10143;DHT22;5112;54.088;13.446;2023-04-25T12:25:50;9.40;99.90
10143;DHT22;5112;54.088;13.446;2023-04-25T12:35:52;9.30;99.90
10143;DHT22;5112;54.088;13.446;2023-04-25T12:45:56;10.00;99.90
10143;DHT22;5112;54.088;13.446;2023-04-25T12:55:57;9.30;99.90
10143;DHT22;5112;54.088;13.446;2023-04-25T13:06:00;8.90;99.90
10143;DHT22;5112;54.088;13.446;2023-04-25T13:16:02;8.70;99.90
10143;DHT22;5112;54.088;13.446;2023-04-25T13:26:06;8.80;99.90
10143;DHT22;5112;54.088;13.446;2023-04-25T13:36:07;9.20;99.90
10143;DHT22;5112;54.088;13.446;2023-04-25T13:46:10;10.00;99.90
10143;DHT22;5112;54.088;13.446;2023-04-25T13:56:13;10.80;99.90
10143;DHT22;5112;54.088;13.446;2023-04-25T14:06:16;10.00;99.90
10143;DHT22;5112;54.088;13.446;2023-04-25T14:16:23;10.10;99.90
10143;DHT22;5112;54.088;13.446;2023-04-25T14:26:26;9.70;99.90
10143;DHT22;5112;54.088;13.446;2023-04-25T14:36:28;9.40;99.90
10143;DHT22;5112;54.088;13.446;2023-04-25T14:46:32;10.40;99.90
10143;DHT22;5112;54.088;13.446;2023-04-25T14:56:34;10.50;99.90
10143;DHT22;5112;54.088;13.446;2023-04-25T15:06:37;10.10;99.90
10143;DHT22;5112;54.088;13.446;2023-04-25T15:16:38;9.60;99.90
10143;DHT22;5112;54.088;13.446;2023-04-25T15:26:42;9.60;99.90
10143;DHT22;5112;54.088;13.446;2023-04-25T15:36:43;9.40;99.90
10143;DHT22;5112;54.088;13.446;2023-04-25T15:46:46;9.40;99.90
10143;DHT22;5112;54.088;13.446;2023-04-25T15:56:48;9.50;99.90
10143;DHT22;5112;54.088;13.446;2023-04-25T16:06:51;9.60;99.90
10143;DHT22;5112;54.088;13.446;2023-04-25T16:16:54;10.10;99.90
10143;DHT22;5112;54.088;13.446;2023-04-25T16:26:57;10.30;99.90
10143;DHT22;5112;54.088;13.446;2023-04-25T16:36:58;9.80;99.90
10143;DHT22;5112;54.088;13.446;2023-04-25T16:47:02;9.80;99.90
10143;DHT22;5112;54.088;13.446;2023-04-25T16:57:05;10.00;99.90
10143;DHT22;5112;54.088;13.446;2023-04-25T17:07:11;9.90;99.90
10143;DHT22;5112;54.088;13.446;2023-04-25T17:17:12;9.70;99.90
10143;DHT22;5112;54.088;13.446;2023-04-25T17:27:15;8.90;99.90
10143;DHT22;5112;54.088;13.446;2023-04-25T17:37:17;8.90;99.90
10143;DHT22;5112;54.088;13.446;2023-04-25T17:47:20;8.90;99.90
10143;DHT22;5112;54.088;13.446;2023-04-25T17:57:22;8.60;99.90
10143;DHT22;5112;54.088;13.446;2023-04-25T18:07:26;8.30;99.90
10143;DHT22;5112;54.088;13.446;2023-04-25T18:17:27;8.10;99.90
10143;DHT22;5112;54.088;13.446;2023-04-25T18:27:30;8.00;99.90
10143;DHT22;5112;54.088;13.446;2023-04-25T18:37:32;7.80;99.90
10143;DHT22;5112;54.088;13.446;2023-04-25T18:47:35;7.60;99.90
10143;DHT22;5112;54.088;13.446;2023-04-25T18:57:37;7.40;99.90
10143;DHT22;5112;54.088;13.446;2023-04-25T19:07:40;7.30;99.90
10143;DHT22;5112;54.088;13.446;2023-04-25T19:17:44;7.10;99.90
10143;DHT22;5112;54.088;13.446;2023-04-25T19:27:47;7.10;99.90
10143;DHT22;5112;54.088;13.446;2023-04-25T19:37:49;7.10;99.90
10143;DHT22;5112;54.088;13.446;2023-04-25T19:47:52;7.00;99.90
10143;DHT22;5112;54.088;13.446;2023-04-25T19:57:54;6.90;99.90
10143;DHT22;5112;54.088;13.446;2023-04-25T20:07:57;6.70;99.90
10143;DHT22;5112;54.088;13.446;2023-04-25T20:17:59;6.60;99.90
10143;DHT22;5112;54.088;13.446;2023-04-25T20:28:02;6.70;99.90
10143;DHT22;5112;54.088;13.446;2023-04-25T20:38:04;6.40;99.90
10143;DHT22;5112;54.088;13.446;2023-04-25T20:48:07;6.40;99.90
10143;DHT22;5112;54.088;13.446;2023-04-25T20:58:09;6.30;99.90
10143;DHT22;5112;54.088;13.446;2023-04-25T21:08:12;6.30;99.90
10143;DHT22;5112;54.088;13.446;2023-04-25T21:18:13;6.10;99.90
10143;DHT22;5112;54.088;13.446;2023-04-25T21:28:16;6.00;99.90
10143;DHT22;5112;54.088;13.446;2023-04-25T21:38:18;5.70;99.90
10143;DHT22;5112;54.088;13.446;2023-04-25T21:48:21;5.80;99.90
10143;DHT22;5112;54.088;13.446;2023-04-25T21:58:23;5.90;99.90
10143;DHT22;5112;54.088;13.446;2023-04-25T22:08:26;5.90;99.90
10143;DHT22;5112;54.088;13.446;2023-04-25T22:18:27;5.90;99.90
10143;DHT22;5112;54.088;13.446;2023-04-25T22:28:31;5.80;99.90
10143;DHT22;5112;54.088;13.446;2023-04-25T22:38:33;5.80;99.90
10143;DHT22;5112;54.088;13.446;2023-04-25T22:48:36;5.70;99.90
10143;DHT22;5112;54.088;13.446;2023-04-25T22:58:38;5.70;99.90
10143;DHT22;5112;54.088;13.446;2023-04-25T23:08:41;5.70;99.90
10143;DHT22;5112;54.088;13.446;2023-04-25T23:18:43;5.40;99.90
10143;DHT22;5112;54.088;13.446;2023-04-25T23:28:46;5.60;99.90
10143;DHT22;5112;54.088;13.446;2023-04-25T23:38:48;5.20;99.90
10143;DHT22;5112;54.088;13.446;2023-04-25T23:48:51;5.00;99.90
10143;DHT22;5112;54.088;13.446;2023-04-25T23:58:52;4.90;99.90
